sensor_id;sensor_type;location;lat;lon;timestamp;pressure;altitude;pressure_sealevel;temperature;humidity
40788;BME280;26497;52.494;7.546;2023-04-23T00:00:53;100130.34;;;14.61;74.05
40788;BME280;26497;52.494;7.546;2023-04-23T00:03:23;100128.19;;;14.79;73.97
40788;BME280;26497;52.494;7.546;2023-04-23T00:05:52;100127.41;;;14.73;73.66
40788;BME280;26497;52.494;7.546;2023-04-23T00:08:22;100129.84;;;14.81;73.38
40788;BME280;26497;52.494;7.546;2023-04-23T00:10:51;100132.22;;;14.57;74.00
40788;BME280;26497;52.494;7.546;2023-04-23T00:13:19;100125.75;;;14.69;73.47
40788;BME280;26497;52.494;7.546;2023-04-23T00:15:46;100131.28;;;14.58;73.46
40788;BME280;26497;52.494;7.546;2023-04-23T00:18:14;100129.38;;;14.64;73.36
40788;BME280;26497;52.494;7.546;2023-04-23T00:20:41;100128.63;;;14.60;73.44
40788;BME280;26497;52.494;7.546;2023-04-23T00:23:09;100131.41;;;14.55;73.29
40788;BME280;26497;52.494;7.546;2023-04-23T00:25:37;100136.31;;;14.35;74.41
40788;BME280;26497;52.494;7.546;2023-04-23T00:28:05;100132.00;;;14.30;74.44
40788;BME280;26497;52.494;7.546;2023-04-23T00:30:32;100117.06;;;14.26;74.55
40788;BME280;26497;52.494;7.546;2023-04-23T00:32:59;100125.75;;;14.33;74.26
40788;BME280;26497;52.494;7.546;2023-04-23T00:35:26;100133.69;;;14.33;74.13
40788;BME280;26497;52.494;7.546;2023-04-23T00:37:53;100118.69;;;14.32;73.99
40788;BME280;26497;52.494;7.546;2023-04-23T00:40:22;100122.22;;;14.33;73.94
40788;BME280;26497;52.494;7.546;2023-04-23T00:42:51;100130.13;;;14.34;73.70
40788;BME280;26497;52.494;7.546;2023-04-23T00:45:19;100129.44;;;14.27;74.23
40788;BME280;26497;52.494;7.546;2023-04-23T00:47:46;100131.03;;;14.33;73.71
40788;BME280;26497;52.494;7.546;2023-04-23T00:50:14;100125.66;;;14.38;73.26
40788;BME280;26497;52.494;7.546;2023-04-23T00:52:41;100129.72;;;14.15;74.05
40788;BME280;26497;52.494;7.546;2023-04-23T00:55:08;100133.00;;;14.25;73.71
40788;BME280;26497;52.494;7.546;2023-04-23T00:57:36;100126.09;;;14.18;73.86
40788;BME280;26497;52.494;7.546;2023-04-23T01:00:07;100126.03;;;14.21;73.47
40788;BME280;26497;52.494;7.546;2023-04-23T01:02:35;100125.31;;;14.14;73.67
40788;BME280;26497;52.494;7.546;2023-04-23T01:05:04;100132.44;;;14.12;73.78
40788;BME280;26497;52.494;7.546;2023-04-23T01:07:34;100136.00;;;14.11;73.54
40788;BME280;26497;52.494;7.546;2023-04-23T01:10:03;100130.50;;;14.19;73.54
40788;BME280;26497;52.494;7.546;2023-04-23T01:12:30;100127.16;;;14.10;73.68
40788;BME280;26497;52.494;7.546;2023-04-23T01:14:58;100132.66;;;14.03;73.92
40788;BME280;26497;52.494;7.546;2023-04-23T01:17:26;100131.78;;;14.02;74.05
40788;BME280;26497;52.494;7.546;2023-04-23T01:19:54;100133.50;;;14.05;74.19
40788;BME280;26497;52.494;7.546;2023-04-23T01:22:22;100140.69;;;13.98;74.19
40788;BME280;26497;52.494;7.546;2023-04-23T01:24:50;100134.41;;;14.04;73.88
40788;BME280;26497;52.494;7.546;2023-04-23T01:27:18;100131.56;;;14.11;73.60
40788;BME280;26497;52.494;7.546;2023-04-23T01:29:47;100135.94;;;14.12;73.38
40788;BME280;26497;52.494;7.546;2023-04-23T01:32:15;100137.97;;;14.01;73.60
40788;BME280;26497;52.494;7.546;2023-04-23T01:34:43;100136.09;;;14.06;73.26
40788;BME280;26497;52.494;7.546;2023-04-23T01:37:13;100134.34;;;14.07;73.37
40788;BME280;26497;52.494;7.546;2023-04-23T01:39:42;100127.34;;;14.03;73.49
40788;BME280;26497;52.494;7.546;2023-04-23T01:42:09;100126.59;;;13.96;73.68
40788;BME280;26497;52.494;7.546;2023-04-23T01:44:36;100128.28;;;14.00;73.89
40788;BME280;26497;52.494;7.546;2023-04-23T01:47:04;100130.97;;;13.98;73.87
40788;BME280;26497;52.494;7.546;2023-04-23T01:49:31;100128.97;;;14.08;73.24
40788;BME280;26497;52.494;7.546;2023-04-23T01:51:58;100139.44;;;14.14;72.75
40788;BME280;26497;52.494;7.546;2023-04-23T01:54:26;100138.81;;;14.03;72.68
40788;BME280;26497;52.494;7.546;2023-04-23T01:56:54;100142.50;;;13.96;73.18
40788;BME280;26497;52.494;7.546;2023-04-23T01:59:22;100154.31;;;13.82;73.37
40788;BME280;26497;52.494;7.546;2023-04-23T02:01:49;100154.13;;;13.90;73.21
40788;BME280;26497;52.494;7.546;2023-04-23T02:04:17;100153.41;;;13.83;73.29
40788;BME280;26497;52.494;7.546;2023-04-23T02:06:47;100148.19;;;13.79;73.40
40788;BME280;26497;52.494;7.546;2023-04-23T02:09:15;100146.25;;;13.89;72.98
40788;BME280;26497;52.494;7.546;2023-04-23T02:11:42;100148.13;;;13.82;73.19
40788;BME280;26497;52.494;7.546;2023-04-23T02:14:11;100136.63;;;13.84;73.00
40788;BME280;26497;52.494;7.546;2023-04-23T02:16:38;100143.69;;;13.84;72.93
40788;BME280;26497;52.494;7.546;2023-04-23T02:19:05;100152.59;;;13.81;73.02
40788;BME280;26497;52.494;7.546;2023-04-23T02:21:32;100148.34;;;13.73;73.14
40788;BME280;26497;52.494;7.546;2023-04-23T02:23:59;100151.69;;;13.81;73.09
40788;BME280;26497;52.494;7.546;2023-04-23T02:26:27;100146.25;;;13.87;72.95
40788;BME280;26497;52.494;7.546;2023-04-23T02:28:54;100144.50;;;13.86;72.79
40788;BME280;26497;52.494;7.546;2023-04-23T02:31:23;100149.19;;;13.75;72.96
40788;BME280;26497;52.494;7.546;2023-04-23T02:33:51;100150.13;;;13.72;73.22
40788;BME280;26497;52.494;7.546;2023-04-23T02:36:18;100150.00;;;13.77;73.24
40788;BME280;26497;52.494;7.546;2023-04-23T02:38:45;100130.16;;;13.95;72.56
40788;BME280;26497;52.494;7.546;2023-04-23T02:41:14;100130.09;;;13.98;71.96
40788;BME280;26497;52.494;7.546;2023-04-23T02:43:41;100138.31;;;13.87;72.11
40788;BME280;26497;52.494;7.546;2023-04-23T02:46:08;100137.44;;;13.86;72.10
40788;BME280;26497;52.494;7.546;2023-04-23T02:48:39;100140.13;;;13.85;72.20
40788;BME280;26497;52.494;7.546;2023-04-23T02:51:10;100142.88;;;13.80;72.30
40788;BME280;26497;52.494;7.546;2023-04-23T02:53:38;100146.44;;;13.79;72.38
40788;BME280;26497;52.494;7.546;2023-04-23T02:56:05;100145.56;;;13.79;72.25
40788;BME280;26497;52.494;7.546;2023-04-23T02:58:33;100135.97;;;13.73;72.33
40788;BME280;26497;52.494;7.546;2023-04-23T03:01:01;100137.03;;;13.64;72.77
40788;BME280;26497;52.494;7.546;2023-04-23T03:03:29;100135.28;;;13.63;72.51
40788;BME280;26497;52.494;7.546;2023-04-23T03:06:00;100129.22;;;13.58;72.47
40788;BME280;26497;52.494;7.546;2023-04-23T03:08:27;100141.78;;;13.48;73.04
40788;BME280;26497;52.494;7.546;2023-04-23T03:10:54;100144.41;;;13.50;73.10
40788;BME280;26497;52.494;7.546;2023-04-23T03:13:21;100145.28;;;13.50;72.82
40788;BME280;26497;52.494;7.546;2023-04-23T03:15:49;100138.38;;;13.41;73.08
40788;BME280;26497;52.494;7.546;2023-04-23T03:18:17;100141.13;;;13.35;73.32
40788;BME280;26497;52.494;7.546;2023-04-23T03:20:45;100137.63;;;13.33;72.99
40788;BME280;26497;52.494;7.546;2023-04-23T03:23:13;100137.84;;;13.22;73.17
40788;BME280;26497;52.494;7.546;2023-04-23T03:25:41;100132.56;;;13.24;73.03
40788;BME280;26497;52.494;7.546;2023-04-23T03:28:08;100130.94;;;13.17;72.58
40788;BME280;26497;52.494;7.546;2023-04-23T03:30:35;100135.56;;;13.05;72.68
40788;BME280;26497;52.494;7.546;2023-04-23T03:33:03;100134.53;;;13.11;72.30
40788;BME280;26497;52.494;7.546;2023-04-23T03:35:30;100132.00;;;13.05;71.97
40788;BME280;26497;52.494;7.546;2023-04-23T03:37:57;100126.78;;;13.02;71.69
40788;BME280;26497;52.494;7.546;2023-04-23T03:40:26;100131.22;;;13.00;71.65
40788;BME280;26497;52.494;7.546;2023-04-23T03:42:53;100125.16;;;12.94;71.18
40788;BME280;26497;52.494;7.546;2023-04-23T03:45:22;100122.63;;;12.88;70.90
40788;BME280;26497;52.494;7.546;2023-04-23T03:47:50;100120.06;;;12.83;70.83
40788;BME280;26497;52.494;7.546;2023-04-23T03:50:17;100118.50;;;12.72;71.63
40788;BME280;26497;52.494;7.546;2023-04-23T03:52:44;100117.75;;;12.65;72.45
40788;BME280;26497;52.494;7.546;2023-04-23T03:55:11;100105.31;;;12.68;72.23
40788;BME280;26497;52.494;7.546;2023-04-23T03:57:40;100103.53;;;12.72;72.29
40788;BME280;26497;52.494;7.546;2023-04-23T04:00:08;100108.75;;;12.75;72.08
40788;BME280;26497;52.494;7.546;2023-04-23T04:02:36;100111.53;;;12.67;71.87
40788;BME280;26497;52.494;7.546;2023-04-23T04:05:05;100105.47;;;12.61;72.22
40788;BME280;26497;52.494;7.546;2023-04-23T04:07:32;100098.22;;;12.72;71.89
40788;BME280;26497;52.494;7.546;2023-04-23T04:10:00;100099.91;;;12.76;71.28
40788;BME280;26497;52.494;7.546;2023-04-23T04:12:28;100099.97;;;12.72;70.96
40788;BME280;26497;52.494;7.546;2023-04-23T04:14:57;100107.97;;;12.68;71.15
40788;BME280;26497;52.494;7.546;2023-04-23T04:17:25;100114.22;;;12.66;70.43
40788;BME280;26497;52.494;7.546;2023-04-23T04:19:52;100104.59;;;12.62;70.58
40788;BME280;26497;52.494;7.546;2023-04-23T04:22:19;100104.69;;;12.57;70.45
40788;BME280;26497;52.494;7.546;2023-04-23T04:24:47;100105.59;;;12.54;70.63
40788;BME280;26497;52.494;7.546;2023-04-23T04:27:17;100109.06;;;12.58;70.38
40788;BME280;26497;52.494;7.546;2023-04-23T04:29:44;100103.84;;;12.55;70.41
40788;BME280;26497;52.494;7.546;2023-04-23T04:32:12;100105.69;;;12.50;70.47
40788;BME280;26497;52.494;7.546;2023-04-23T04:34:39;100104.78;;;12.49;70.59
40788;BME280;26497;52.494;7.546;2023-04-23T04:37:07;100106.53;;;12.52;70.99
40788;BME280;26497;52.494;7.546;2023-04-23T04:39:36;100109.88;;;12.60;70.89
40788;BME280;26497;52.494;7.546;2023-04-23T04:42:03;100109.97;;;12.57;71.01
40788;BME280;26497;52.494;7.546;2023-04-23T04:44:32;100107.16;;;12.65;70.64
40788;BME280;26497;52.494;7.546;2023-04-23T04:47:02;100110.63;;;12.68;70.65
40788;BME280;26497;52.494;7.546;2023-04-23T04:49:30;100111.41;;;12.75;71.05
40788;BME280;26497;52.494;7.546;2023-04-23T04:51:57;100115.06;;;12.66;71.82
40788;BME280;26497;52.494;7.546;2023-04-23T04:54:25;100115.84;;;12.72;71.86
40788;BME280;26497;52.494;7.546;2023-04-23T04:56:52;100107.75;;;12.81;72.00
40788;BME280;26497;52.494;7.546;2023-04-23T04:59:19;100096.88;;;12.96;71.92
40788;BME280;26497;52.494;7.546;2023-04-23T05:01:47;100096.69;;;13.06;71.57
40788;BME280;26497;52.494;7.546;2023-04-23T05:04:14;100099.41;;;13.03;71.94
40788;BME280;26497;52.494;7.546;2023-04-23T05:06:42;100099.41;;;13.04;72.34
40788;BME280;26497;52.494;7.546;2023-04-23T05:09:10;100102.66;;;13.19;72.67
40788;BME280;26497;52.494;7.546;2023-04-23T05:11:37;100096.03;;;13.38;72.84
40788;BME280;26497;52.494;7.546;2023-04-23T05:14:06;100105.50;;;13.52;73.40
40788;BME280;26497;52.494;7.546;2023-04-23T05:16:33;100098.94;;;13.70;73.97
40788;BME280;26497;52.494;7.546;2023-04-23T05:19:00;100095.91;;;13.87;74.44
40788;BME280;26497;52.494;7.546;2023-04-23T05:21:28;100093.88;;;13.98;73.97
40788;BME280;26497;52.494;7.546;2023-04-23T05:23:57;100100.16;;;13.93;74.27
40788;BME280;26497;52.494;7.546;2023-04-23T05:26:24;100108.03;;;13.97;74.06
40788;BME280;26497;52.494;7.546;2023-04-23T05:28:52;100105.19;;;14.05;73.48
40788;BME280;26497;52.494;7.546;2023-04-23T05:31:19;100092.84;;;14.04;73.60
40788;BME280;26497;52.494;7.546;2023-04-23T05:33:46;100092.53;;;14.16;73.06
40788;BME280;26497;52.494;7.546;2023-04-23T05:36:13;100104.66;;;14.27;73.63
40788;BME280;26497;52.494;7.546;2023-04-23T05:38:40;100103.19;;;14.51;74.38
40788;BME280;26497;52.494;7.546;2023-04-23T05:41:09;100104.97;;;14.85;74.59
40788;BME280;26497;52.494;7.546;2023-04-23T05:43:36;100104.22;;;15.13;75.14
40788;BME280;26497;52.494;7.546;2023-04-23T05:46:04;100094.84;;;15.31;74.88
40788;BME280;26497;52.494;7.546;2023-04-23T05:48:32;100107.75;;;15.44;74.59
40788;BME280;26497;52.494;7.546;2023-04-23T05:50:59;100103.25;;;15.47;74.03
40788;BME280;26497;52.494;7.546;2023-04-23T05:53:27;100110.41;;;15.44;73.62
40788;BME280;26497;52.494;7.546;2023-04-23T05:55:54;100114.63;;;15.21;73.24
40788;BME280;26497;52.494;7.546;2023-04-23T05:58:23;100114.31;;;15.00;73.44
40788;BME280;26497;52.494;7.546;2023-04-23T06:00:51;100111.44;;;15.08;73.71
40788;BME280;26497;52.494;7.546;2023-04-23T06:03:18;100103.03;;;15.24;73.55
40788;BME280;26497;52.494;7.546;2023-04-23T06:05:45;100101.53;;;15.15;73.95
40788;BME280;26497;52.494;7.546;2023-04-23T06:08:13;100108.09;;;15.33;74.22
40788;BME280;26497;52.494;7.546;2023-04-23T06:10:40;100105.56;;;15.28;73.35
40788;BME280;26497;52.494;7.546;2023-04-23T06:13:07;100099.22;;;15.32;74.00
40788;BME280;26497;52.494;7.546;2023-04-23T06:15:37;100099.34;;;15.59;73.92
40788;BME280;26497;52.494;7.546;2023-04-23T06:18:04;100096.84;;;15.55;74.52
40788;BME280;26497;52.494;7.546;2023-04-23T06:20:32;100085.34;;;15.83;74.72
40788;BME280;26497;52.494;7.546;2023-04-23T06:22:59;100085.81;;;16.24;74.21
40788;BME280;26497;52.494;7.546;2023-04-23T06:25:27;100077.19;;;16.44;72.69
40788;BME280;26497;52.494;7.546;2023-04-23T06:27:55;100082.59;;;16.14;71.73
40788;BME280;26497;52.494;7.546;2023-04-23T06:30:22;100067.03;;;16.56;74.99
40788;BME280;26497;52.494;7.546;2023-04-23T06:32:51;100069.59;;;17.33;75.34
40788;BME280;26497;52.494;7.546;2023-04-23T06:35:19;100073.22;;;18.64;73.00
40788;BME280;26497;52.494;7.546;2023-04-23T06:37:46;100065.94;;;19.86;66.95
40788;BME280;26497;52.494;7.546;2023-04-23T06:40:14;100052.06;;;21.84;65.76
40788;BME280;26497;52.494;7.546;2023-04-23T06:42:41;100043.28;;;23.03;57.82
40788;BME280;26497;52.494;7.546;2023-04-23T06:45:10;100043.56;;;22.98;47.35
40788;BME280;26497;52.494;7.546;2023-04-23T06:47:38;100042.78;;;23.54;50.32
40788;BME280;26497;52.494;7.546;2023-04-23T06:50:07;100032.22;;;23.22;46.45
40788;BME280;26497;52.494;7.546;2023-04-23T06:52:35;100037.03;;;24.15;45.79
40788;BME280;26497;52.494;7.546;2023-04-23T06:55:02;100030.72;;;24.29;43.13
40788;BME280;26497;52.494;7.546;2023-04-23T06:57:29;100032.69;;;24.66;41.73
40788;BME280;26497;52.494;7.546;2023-04-23T06:59:56;100033.88;;;25.26;40.85
40788;BME280;26497;52.494;7.546;2023-04-23T07:02:24;100031.31;;;26.11;38.75
40788;BME280;26497;52.494;7.546;2023-04-23T07:04:51;100031.31;;;26.82;36.42
40788;BME280;26497;52.494;7.546;2023-04-23T07:07:19;100028.03;;;26.54;35.93
40788;BME280;26497;52.494;7.546;2023-04-23T07:09:46;100027.53;;;26.60;35.21
40788;BME280;26497;52.494;7.546;2023-04-23T07:12:13;100023.00;;;26.14;35.18
40788;BME280;26497;52.494;7.546;2023-04-23T07:14:41;100014.03;;;26.60;35.38
40788;BME280;26497;52.494;7.546;2023-04-23T07:17:08;100022.59;;;26.31;34.51
40788;BME280;26497;52.494;7.546;2023-04-23T07:19:36;100020.47;;;26.24;35.02
40788;BME280;26497;52.494;7.546;2023-04-23T07:22:04;100005.69;;;25.92;35.75
40788;BME280;26497;52.494;7.546;2023-04-23T07:24:32;100012.78;;;25.82;35.87
40788;BME280;26497;52.494;7.546;2023-04-23T07:26:59;100010.53;;;25.51;36.60
40788;BME280;26497;52.494;7.546;2023-04-23T07:29:27;100007.72;;;24.90;35.94
40788;BME280;26497;52.494;7.546;2023-04-23T07:31:54;100006.63;;;24.92;37.34
40788;BME280;26497;52.494;7.546;2023-04-23T07:34:22;99989.75;;;25.65;35.28
40788;BME280;26497;52.494;7.546;2023-04-23T07:36:49;100001.91;;;26.19;35.18
40788;BME280;26497;52.494;7.546;2023-04-23T07:39:17;99994.38;;;26.81;34.92
40788;BME280;26497;52.494;7.546;2023-04-23T07:41:46;99993.28;;;26.72;33.76
40788;BME280;26497;52.494;7.546;2023-04-23T07:44:13;99989.81;;;26.47;34.61
40788;BME280;26497;52.494;7.546;2023-04-23T07:46:40;99986.03;;;26.14;34.26
40788;BME280;26497;52.494;7.546;2023-04-23T07:49:07;99989.19;;;26.08;35.26
40788;BME280;26497;52.494;7.546;2023-04-23T07:51:34;99983.50;;;26.24;34.02
40788;BME280;26497;52.494;7.546;2023-04-23T07:54:01;99995.19;;;25.39;35.42
40788;BME280;26497;52.494;7.546;2023-04-23T07:56:29;99992.25;;;25.55;35.25
40788;BME280;26497;52.494;7.546;2023-04-23T07:58:58;99977.31;;;25.25;36.22
40788;BME280;26497;52.494;7.546;2023-04-23T08:01:26;99994.72;;;24.56;36.88
40788;BME280;26497;52.494;7.546;2023-04-23T08:03:53;99987.53;;;23.48;38.95
40788;BME280;26497;52.494;7.546;2023-04-23T08:06:21;99980.28;;;22.49;41.04
40788;BME280;26497;52.494;7.546;2023-04-23T08:08:59;99992.47;;;22.24;42.95
40788;BME280;26497;52.494;7.546;2023-04-23T08:11:35;99976.94;;;22.45;42.13
40788;BME280;26497;52.494;7.546;2023-04-23T08:14:04;99973.63;;;22.40;42.62
40788;BME280;26497;52.494;7.546;2023-04-23T08:16:31;99976.59;;;23.22;41.81
40788;BME280;26497;52.494;7.546;2023-04-23T08:18:58;99976.13;;;23.72;39.22
40788;BME280;26497;52.494;7.546;2023-04-23T08:21:25;99983.53;;;24.36;39.07
40788;BME280;26497;52.494;7.546;2023-04-23T08:23:53;99983.06;;;25.20;37.17
40788;BME280;26497;52.494;7.546;2023-04-23T08:26:21;99981.03;;;24.59;37.61
40788;BME280;26497;52.494;7.546;2023-04-23T08:28:48;99972.97;;;25.48;37.65
40788;BME280;26497;52.494;7.546;2023-04-23T08:31:17;99975.50;;;26.23;35.27
40788;BME280;26497;52.494;7.546;2023-04-23T08:33:44;99977.28;;;26.58;35.14
40788;BME280;26497;52.494;7.546;2023-04-23T08:36:11;99979.00;;;26.12;34.57
40788;BME280;26497;52.494;7.546;2023-04-23T08:38:40;99980.41;;;25.93;35.65
40788;BME280;26497;52.494;7.546;2023-04-23T08:41:10;99974.97;;;25.82;35.06
40788;BME280;26497;52.494;7.546;2023-04-23T08:43:46;99975.66;;;25.48;36.11
40788;BME280;26497;52.494;7.546;2023-04-23T08:46:18;99975.97;;;25.43;35.92
40788;BME280;26497;52.494;7.546;2023-04-23T08:48:45;99971.56;;;24.92;37.11
40788;BME280;26497;52.494;7.546;2023-04-23T08:51:17;99965.28;;;25.17;37.57
40788;BME280;26497;52.494;7.546;2023-04-23T08:53:50;99971.69;;;26.14;35.83
40788;BME280;26497;52.494;7.546;2023-04-23T08:56:22;99973.13;;;25.82;36.09
40788;BME280;26497;52.494;7.546;2023-04-23T08:58:50;99976.16;;;25.16;36.85
40788;BME280;26497;52.494;7.546;2023-04-23T09:01:18;99975.75;;;25.46;37.78
40788;BME280;26497;52.494;7.546;2023-04-23T09:03:46;99960.16;;;25.99;36.40
40788;BME280;26497;52.494;7.546;2023-04-23T09:06:13;99965.44;;;26.25;35.79
40788;BME280;26497;52.494;7.546;2023-04-23T09:08:40;99962.91;;;26.34;35.63
40788;BME280;26497;52.494;7.546;2023-04-23T09:11:08;99954.66;;;26.36;35.28
40788;BME280;26497;52.494;7.546;2023-04-23T09:13:35;99962.22;;;26.89;34.36
40788;BME280;26497;52.494;7.546;2023-04-23T09:16:04;99967.13;;;26.96;34.31
40788;BME280;26497;52.494;7.546;2023-04-23T09:18:33;99964.78;;;26.68;34.63
40788;BME280;26497;52.494;7.546;2023-04-23T09:21:01;99953.41;;;27.54;34.59
40788;BME280;26497;52.494;7.546;2023-04-23T09:23:29;99955.50;;;27.50;32.43
40788;BME280;26497;52.494;7.546;2023-04-23T09:25:56;99953.91;;;27.36;33.61
40788;BME280;26497;52.494;7.546;2023-04-23T09:28:33;99943.59;;;27.30;33.72
40788;BME280;26497;52.494;7.546;2023-04-23T09:31:01;99952.03;;;27.60;32.73
40788;BME280;26497;52.494;7.546;2023-04-23T09:33:28;99950.03;;;26.72;33.77
40788;BME280;26497;52.494;7.546;2023-04-23T09:35:57;99942.50;;;26.30;34.66
40788;BME280;26497;52.494;7.546;2023-04-23T09:38:24;99941.84;;;26.27;34.38
40788;BME280;26497;52.494;7.546;2023-04-23T09:40:51;99941.41;;;26.78;34.53
40788;BME280;26497;52.494;7.546;2023-04-23T09:43:18;99938.94;;;28.61;32.99
40788;BME280;26497;52.494;7.546;2023-04-23T09:45:48;99938.81;;;29.84;29.66
40788;BME280;26497;52.494;7.546;2023-04-23T09:48:16;99940.63;;;28.83;30.75
40788;BME280;26497;52.494;7.546;2023-04-23T09:50:43;99942.47;;;27.33;33.00
40788;BME280;26497;52.494;7.546;2023-04-23T09:53:13;99928.41;;;26.02;34.52
40788;BME280;26497;52.494;7.546;2023-04-23T09:55:40;99936.56;;;25.89;35.20
40788;BME280;26497;52.494;7.546;2023-04-23T09:58:12;99938.56;;;25.63;35.84
40788;BME280;26497;52.494;7.546;2023-04-23T10:00:40;99946.94;;;25.47;36.70
40788;BME280;26497;52.494;7.546;2023-04-23T10:03:09;99938.69;;;25.24;36.40
40788;BME280;26497;52.494;7.546;2023-04-23T10:05:41;99938.44;;;25.65;37.12
40788;BME280;26497;52.494;7.546;2023-04-23T10:08:10;99930.63;;;26.90;34.42
40788;BME280;26497;52.494;7.546;2023-04-23T10:10:39;99921.88;;;26.98;33.95
40788;BME280;26497;52.494;7.546;2023-04-23T10:13:06;99933.16;;;26.80;34.19
40788;BME280;26497;52.494;7.546;2023-04-23T10:15:34;99925.94;;;26.69;33.66
40788;BME280;26497;52.494;7.546;2023-04-23T10:18:03;99941.53;;;26.07;33.99
40788;BME280;26497;52.494;7.546;2023-04-23T10:20:33;99924.44;;;26.42;34.88
40788;BME280;26497;52.494;7.546;2023-04-23T10:23:00;99927.09;;;26.19;34.20
40788;BME280;26497;52.494;7.546;2023-04-23T10:25:29;99923.38;;;26.90;33.55
40788;BME280;26497;52.494;7.546;2023-04-23T10:27:57;99923.09;;;26.59;34.24
40788;BME280;26497;52.494;7.546;2023-04-23T10:30:26;99925.53;;;26.28;34.29
40788;BME280;26497;52.494;7.546;2023-04-23T10:32:54;99927.94;;;25.84;34.46
40788;BME280;26497;52.494;7.546;2023-04-23T10:35:22;99920.13;;;25.92;34.58
40788;BME280;26497;52.494;7.546;2023-04-23T10:37:50;99928.06;;;25.47;35.03
40788;BME280;26497;52.494;7.546;2023-04-23T10:40:23;99929.97;;;24.83;35.13
40788;BME280;26497;52.494;7.546;2023-04-23T10:42:53;99933.41;;;24.72;36.52
40788;BME280;26497;52.494;7.546;2023-04-23T10:45:21;99913.84;;;24.95;35.78
40788;BME280;26497;52.494;7.546;2023-04-23T10:47:48;99905.00;;;26.26;34.56
40788;BME280;26497;52.494;7.546;2023-04-23T10:50:21;99909.78;;;27.25;32.56
40788;BME280;26497;52.494;7.546;2023-04-23T10:52:49;99915.47;;;26.99;30.39
40788;BME280;26497;52.494;7.546;2023-04-23T10:55:20;99911.03;;;26.75;31.55
40788;BME280;26497;52.494;7.546;2023-04-23T10:58:00;99905.19;;;27.36;30.90
40788;BME280;26497;52.494;7.546;2023-04-23T11:00:29;99896.34;;;28.21;31.28
40788;BME280;26497;52.494;7.546;2023-04-23T11:02:57;99900.81;;;28.94;28.35
40788;BME280;26497;52.494;7.546;2023-04-23T11:05:24;99893.28;;;28.66;28.93
40788;BME280;26497;52.494;7.546;2023-04-23T11:08:04;99903.63;;;27.88;28.22
40788;BME280;26497;52.494;7.546;2023-04-23T11:10:32;99912.31;;;26.82;30.41
40788;BME280;26497;52.494;7.546;2023-04-23T11:13:23;99904.06;;;27.06;30.46
40788;BME280;26497;52.494;7.546;2023-04-23T11:16:11;99896.22;;;26.92;31.53
40788;BME280;26497;52.494;7.546;2023-04-23T11:18:55;99898.94;;;25.64;32.01
40788;BME280;26497;52.494;7.546;2023-04-23T11:21:22;99896.03;;;25.05;32.66
40788;BME280;26497;52.494;7.546;2023-04-23T11:24:09;99898.97;;;24.63;33.56
40788;BME280;26497;52.494;7.546;2023-04-23T11:26:37;99909.56;;;24.53;34.61
40788;BME280;26497;52.494;7.546;2023-04-23T11:29:06;99900.63;;;24.79;34.97
40788;BME280;26497;52.494;7.546;2023-04-23T11:31:34;99908.03;;;25.25;34.08
40788;BME280;26497;52.494;7.546;2023-04-23T11:34:02;99901.34;;;25.55;33.15
40788;BME280;26497;52.494;7.546;2023-04-23T11:36:29;99897.03;;;24.91;33.10
40788;BME280;26497;52.494;7.546;2023-04-23T11:38:56;99898.66;;;24.81;33.70
40788;BME280;26497;52.494;7.546;2023-04-23T11:41:23;99899.22;;;24.60;33.08
40788;BME280;26497;52.494;7.546;2023-04-23T11:43:50;99896.53;;;24.21;33.74
40788;BME280;26497;52.494;7.546;2023-04-23T11:46:19;99882.31;;;24.19;33.73
40788;BME280;26497;52.494;7.546;2023-04-23T11:48:48;99881.06;;;24.88;32.42
40788;BME280;26497;52.494;7.546;2023-04-23T11:51:15;99872.78;;;25.64;32.82
40788;BME280;26497;52.494;7.546;2023-04-23T11:53:45;99868.53;;;26.88;31.22
40788;BME280;26497;52.494;7.546;2023-04-23T11:56:15;99872.84;;;26.91;30.64
40788;BME280;26497;52.494;7.546;2023-04-23T11:58:42;99857.75;;;27.21;29.45
40788;BME280;26497;52.494;7.546;2023-04-23T12:01:10;99864.47;;;27.71;28.91
40788;BME280;26497;52.494;7.546;2023-04-23T12:03:39;99864.66;;;27.58;28.36
40788;BME280;26497;52.494;7.546;2023-04-23T12:06:06;99860.56;;;27.63;28.52
40788;BME280;26497;52.494;7.546;2023-04-23T12:08:34;99859.38;;;27.12;27.53
40788;BME280;26497;52.494;7.546;2023-04-23T12:11:03;99856.41;;;27.59;28.24
40788;BME280;26497;52.494;7.546;2023-04-23T12:13:33;99846.09;;;28.17;26.92
40788;BME280;26497;52.494;7.546;2023-04-23T12:16:03;99844.44;;;27.29;27.05
40788;BME280;26497;52.494;7.546;2023-04-23T12:18:32;99846.34;;;27.50;27.71
40788;BME280;26497;52.494;7.546;2023-04-23T12:21:06;99848.16;;;27.17;27.25
40788;BME280;26497;52.494;7.546;2023-04-23T12:23:33;99843.31;;;27.32;27.57
40788;BME280;26497;52.494;7.546;2023-04-23T12:26:02;99844.25;;;27.75;28.43
40788;BME280;26497;52.494;7.546;2023-04-23T12:28:29;99837.63;;;28.10;26.49
40788;BME280;26497;52.494;7.546;2023-04-23T12:31:00;99831.03;;;27.60;25.89
40788;BME280;26497;52.494;7.546;2023-04-23T12:33:28;99837.88;;;27.11;26.01
40788;BME280;26497;52.494;7.546;2023-04-23T12:35:56;99828.13;;;26.53;27.43
40788;BME280;26497;52.494;7.546;2023-04-23T12:38:27;99832.63;;;26.63;27.31
40788;BME280;26497;52.494;7.546;2023-04-23T12:40:57;99823.09;;;26.48;27.84
40788;BME280;26497;52.494;7.546;2023-04-23T12:43:26;99830.72;;;26.31;27.33
40788;BME280;26497;52.494;7.546;2023-04-23T12:45:55;99815.09;;;26.24;28.35
40788;BME280;26497;52.494;7.546;2023-04-23T12:48:22;99809.03;;;26.65;27.65
40788;BME280;26497;52.494;7.546;2023-04-23T12:50:49;99814.06;;;26.82;27.36
40788;BME280;26497;52.494;7.546;2023-04-23T12:53:17;99806.22;;;26.78;27.43
40788;BME280;26497;52.494;7.546;2023-04-23T12:55:48;99799.59;;;26.60;27.43
40788;BME280;26497;52.494;7.546;2023-04-23T12:58:16;99793.59;;;26.11;27.71
40788;BME280;26497;52.494;7.546;2023-04-23T13:00:43;99794.22;;;26.37;28.06